Time;durP1;ratioP1;P1;durP2;ratioP2;P2;SDS_P1;SDS_P2;PMS_P1;PMS_P2;Temp;Humidity;BMP_temperature;BMP_pressure;BME280_temperature;BME280_humidity;BME280_pressure;Samples;Min_cycle;Max_cycle;Signal;HPM_P1;HPM_P2
2022/11/16 00:00:25;;;;;;;5.40;4.90;;;12.50;99.90;;;;;;2617617;54;20125;-75
2022/11/16 00:06:14;;;;;;;7.93;5.60;;;12.50;99.90;;;;;;2617513;39;20551;-74
2022/11/16 00:12:07;;;;;;;5.50;4.30;;;12.40;99.90;;;;;;2616567;39;20869;-76
2022/11/16 00:15:10;;;;;;;4.90;4.40;;;12.40;99.90;;;;;;2615331;47;20944;-77
2022/11/16 00:17:36;;;;;;;7.03;5.17;;;12.30;99.90;;;;;;2616139;54;20414;-76
2022/11/16 00:23:24;;;;;;;5.83;4.50;;;12.30;99.90;;;;;;2615880;54;20145;-76
2022/11/16 00:26:35;;;;;;;6.87;5.87;;;12.20;99.90;;;;;;2615946;54;20431;-76
2022/11/16 00:29:01;;;;;;;5.10;4.60;;;12.20;99.90;;;;;;2615586;47;20427;-75
2022/11/16 00:34:48;;;;;;;5.37;4.87;;;12.20;99.90;;;;;;2615841;54;20282;-78
2022/11/16 00:40:36;;;;;;;10.90;6.33;;;12.10;99.90;;;;;;2616128;54;20146;-76
2022/11/16 00:46:24;;;;;;;7.57;5.27;;;12.10;99.90;;;;;;2615784;54;20161;-77
2022/11/16 00:52:12;;;;;;;7.20;5.60;;;12.00;99.90;;;;;;2616241;54;20121;-77
2022/11/16 00:57:59;;;;;;;6.67;4.60;;;12.10;99.90;;;;;;2616713;54;20146;-78
2022/11/16 01:00:25;;;;;;;8.13;5.97;;;12.10;99.90;;;;;;2616741;54;20404;-77
2022/11/16 01:02:53;;;;;;;7.40;5.23;;;12.10;99.90;;;;;;2617122;54;20720;-77
2022/11/16 01:08:42;;;;;;;8.37;5.50;;;12.00;99.90;;;;;;2616951;54;20390;-77
2022/11/16 01:14:30;;;;;;;6.20;5.07;;;12.10;99.90;;;;;;2617231;54;20504;-80
2022/11/16 01:20:20;;;;;;;7.37;6.17;;;12.00;99.90;;;;;;2616981;39;20771;-79
2022/11/16 01:26:08;;;;;;;4.80;4.30;;;11.90;99.90;;;;;;2616949;54;20358;-78
2022/11/16 01:31:57;;;;;;;5.67;4.50;;;11.90;99.90;;;;;;2616699;54;20186;-80
2022/11/16 01:37:44;;;;;;;6.43;5.30;;;11.90;99.90;;;;;;2616178;54;20414;-81
2022/11/16 01:50:21;;;;;;;5.90;5.00;;;11.90;99.90;;;;;;2616446;54;20394;-81
2022/11/16 01:56:09;;;;;;;6.63;5.10;;;11.80;99.90;;;;;;2614789;54;20411;-81
2022/11/16 02:01:58;;;;;;;6.17;5.07;;;11.80;99.90;;;;;;2616009;54;20137;-81
2022/11/16 02:21:53;;;;;;;11.93;5.83;;;11.60;99.90;;;;;;2615931;39;20843;-83
2022/11/16 02:40:54;;;;;;;6.47;5.80;;;11.60;99.90;;;;;;2616936;54;20366;-81
2022/11/16 02:46:46;;;;;;;6.80;5.30;;;11.60;99.90;;;;;;2617173;39;20772;-81
2022/11/16 02:52:35;;;;;;;6.87;4.20;;;11.60;99.90;;;;;;2616137;54;20427;-81
2022/11/16 02:58:24;;;;;;;5.47;4.30;;;11.60;99.90;;;;;;2616207;54;20374;-83
2022/11/16 03:15:14;;;;;;;6.10;3.10;;;11.70;99.90;;;;;;2616221;54;20402;-79
2022/11/16 03:37:26;;;;;;;3.47;3.07;;;11.60;99.90;;;;;;2615204;54;20433;-81
2022/11/16 03:43:16;;;;;;;5.30;3.93;;;11.60;99.90;;;;;;2615127;54;20538;-80
2022/11/16 03:49:04;;;;;;;4.03;3.33;;;11.60;99.90;;;;;;2615156;54;20395;-80
2022/11/16 03:54:51;;;;;;;3.20;2.80;;;11.50;99.90;;;;;;2615303;54;20403;-81
2022/11/16 04:00:39;;;;;;;4.23;3.20;;;11.50;99.90;;;;;;2616497;54;20138;-81
2022/11/16 04:24:53;;;;;;;5.67;3.20;;;11.50;99.90;;;;;;2616904;54;21030;-79
2022/11/16 04:47:07;;;;;;;3.30;2.30;;;11.40;99.90;;;;;;2615150;54;20467;-77
2022/11/16 04:52:54;;;;;;;2.90;1.90;;;11.40;99.90;;;;;;2614382;54;20400;-77
2022/11/16 04:58:41;;;;;;;2.87;2.50;;;11.40;99.90;;;;;;2615123;54;20707;-76
2022/11/16 05:04:28;;;;;;;8.83;2.80;;;11.40;99.90;;;;;;2615470;54;20123;-78
2022/11/16 05:10:16;;;;;;;5.33;3.20;;;11.40;99.90;;;;;;2614615;54;20258;-77
2022/11/16 05:16:03;;;;;;;2.83;2.33;;;11.40;99.90;;;;;;2614347;54;20405;-76
2022/11/16 05:21:50;;;;;;;2.87;2.20;;;11.30;99.90;;;;;;2615335;54;20138;-76
2022/11/16 05:27:38;;;;;;;9.47;2.83;;;11.30;99.90;;;;;;2615919;54;20171;-76
2022/11/16 05:33:26;;;;;;;4.90;3.13;;;11.30;99.90;;;;;;2615997;54;20134;-75
2022/11/16 05:39:13;;;;;;;5.80;4.83;;;11.40;99.90;;;;;;2615216;54;20178;-76
2022/11/16 05:45:02;;;;;;;3.93;3.53;;;11.30;99.90;;;;;;2616772;54;20158;-76
2022/11/16 05:50:50;;;;;;;3.47;3.07;;;11.40;99.90;;;;;;2616298;54;21447;-79
2022/11/16 05:56:38;;;;;;;2.60;2.13;;;11.30;99.90;;;;;;2616998;54;20644;-77
2022/11/16 06:02:25;;;;;;;3.63;2.90;;;11.20;99.90;;;;;;2616764;54;20375;-77
2022/11/16 06:08:13;;;;;;;4.63;3.30;;;11.20;99.90;;;;;;2616373;54;20146;-77
2022/11/16 06:14:01;;;;;;;5.30;3.30;;;11.20;99.90;;;;;;2616065;54;20123;-77
2022/11/16 06:19:48;;;;;;;3.73;3.30;;;11.30;99.90;;;;;;2615733;39;20531;-80
2022/11/16 06:25:38;;;;;;;5.30;3.33;;;11.30;99.90;;;;;;2614204;54;20659;-78
2022/11/16 06:31:25;;;;;;;5.20;4.03;;;11.30;99.90;;;;;;2614991;54;20439;-79
2022/11/16 06:40:36;;;;;;;7.57;5.23;;;11.30;99.90;;;;;;2615447;54;20435;-80
2022/11/16 06:46:24;;;;;;;9.27;5.33;;;11.20;99.90;;;;;;2613955;54;20399;-79
2022/11/16 06:52:12;;;;;;;5.23;4.60;;;11.20;99.90;;;;;;2612503;54;20438;-79
2022/11/16 06:58:00;;;;;;;7.80;6.20;;;11.20;99.90;;;;;;2614272;54;20138;-76
2022/11/16 07:03:48;;;;;;;14.37;7.17;;;11.20;99.90;;;;;;2614223;54;20234;-77
2022/11/16 07:09:36;;;;;;;9.83;7.60;;;11.20;99.90;;;;;;2611994;54;20398;-76
2022/11/16 07:15:24;;;;;;;14.20;7.77;;;11.30;99.90;;;;;;2614032;54;20130;-79
2022/11/16 07:21:14;;;;;;;9.50;8.00;;;11.20;99.90;;;;;;2615176;54;20123;-78
2022/11/16 07:27:02;;;;;;;10.03;7.13;;;11.20;99.90;;;;;;2617438;39;20796;-79
2022/11/16 07:32:50;;;;;;;11.73;7.70;;;11.30;99.90;;;;;;2616875;54;20134;-80
2022/11/16 07:36:01;;;;;;;13.93;7.50;;;11.30;99.90;;;;;;2615411;47;20959;-78
2022/11/16 07:38:27;;;;;;;9.53;7.10;;;11.40;99.90;;;;;;2615280;54;20166;-79
2022/11/16 07:44:15;;;;;;;11.90;7.43;;;11.40;99.90;;;;;;2617364;54;20402;-80
2022/11/16 07:50:04;;;;;;;12.43;7.00;;;11.30;99.90;;;;;;2615622;54;20138;-79
2022/11/16 07:55:52;;;;;;;12.63;6.30;;;11.20;99.90;;;;;;2616242;54;20394;-79
2022/11/16 08:01:40;;;;;;;11.60;5.70;;;11.20;99.90;;;;;;2616054;54;20382;-79
2022/11/16 08:07:28;;;;;;;10.23;5.77;;;11.50;99.90;;;;;;2617019;54;20154;-80
2022/11/16 08:13:16;;;;;;;9.83;5.43;;;13.00;99.90;;;;;;2616433;39;20511;-80
2022/11/16 08:19:04;;;;;;;10.27;5.30;;;12.10;99.90;;;;;;2614191;39;20261;-79
2022/11/16 08:24:51;;;;;;;5.37;4.83;;;12.20;99.90;;;;;;2616805;54;20138;-79
2022/11/16 08:30:40;;;;;;;10.83;4.73;;;11.40;99.90;;;;;;2615777;54;20170;-78
2022/11/16 08:40:34;;;;;;;7.10;5.63;;;12.70;99.90;;;;;;2615521;54;20387;-78
2022/11/16 08:46:22;;;;;;;9.70;5.20;;;12.10;99.90;;;;;;2615551;54;20423;-78
2022/11/16 08:52:09;;;;;;;9.53;5.03;;;13.10;99.90;;;;;;2615091;54;20150;-78
2022/11/16 08:57:57;;;;;;;5.50;5.00;;;12.60;99.90;;;;;;2615448;54;20134;-79
2022/11/16 09:03:45;;;;;;;4.63;3.97;;;12.50;99.90;;;;;;2614467;54;20158;-78
2022/11/16 09:09:34;;;;;;;5.47;4.60;;;13.10;99.90;;;;;;2615384;54;20414;-79
2022/11/16 09:15:22;;;;;;;12.63;4.37;;;13.50;99.90;;;;;;2614734;54;20403;-79
2022/11/16 09:21:10;;;;;;;7.87;5.77;;;14.00;99.90;;;;;;2614579;54;20170;-78
2022/11/16 09:27:00;;;;;;;5.13;4.73;;;15.60;99.90;;;;;;2613640;54;20150;-80
2022/11/16 09:32:47;;;;;;;7.83;4.57;;;16.70;99.90;;;;;;2615838;54;20491;-81
2022/11/16 09:38:46;;;;;;;7.13;5.10;;;13.80;99.90;;;;;;2613542;54;20163;-79
2022/11/16 09:51:07;;;;;;;5.47;3.80;;;15.80;97.60;;;;;;2613035;54;20416;-80
2022/11/16 09:56:58;;;;;;;7.70;4.20;;;14.60;99.90;;;;;;2612228;54;20527;-79
2022/11/16 10:12:42;;;;;;;8.30;4.07;;;13.50;99.90;;;;;;2614045;39;20829;-79
2022/11/16 10:22:38;;;;;;;6.10;4.67;;;13.00;99.90;;;;;;2613878;39;20809;-79
2022/11/16 10:28:47;;;;;;;5.30;5.00;;;13.40;99.90;;;;;;2612670;54;20414;-79
2022/11/16 10:34:41;;;;;;;6.53;4.13;;;13.40;99.90;;;;;;2615115;54;20452;-81
2022/11/16 10:40:38;;;;;;;6.53;4.20;;;15.10;99.90;;;;;;2614850;54;20977;-81
2022/11/16 10:50:01;;;;;;;5.00;4.40;;;15.10;93.80;;;;;;2613790;54;20379;-76
2022/11/16 11:02:34;;;;;;;9.73;5.23;;;17.10;71.00;;;;;;2614707;39;20864;-76
2022/11/16 11:08:29;;;;;;;7.30;6.60;;;18.80;45.20;;;;;;2614150;54;20418;-78
2022/11/16 11:14:17;;;;;;;7.60;6.90;;;18.30;39.00;;;;;;2615941;54;20936;-78
2022/11/16 11:20:15;;;;;;;8.17;5.97;;;17.70;40.70;;;;;;2614268;54;20139;-78
2022/11/16 11:26:04;;;;;;;5.90;5.50;;;18.60;36.10;;;;;;2614451;54;20485;-78
2022/11/16 11:38:52;;;;;;;7.70;7.00;;;17.50;37.70;;;;;;2614103;54;21027;-78
2022/11/16 11:41:18;;;;;;;6.30;5.80;;;18.30;34.40;;;;;;2613265;46;20486;-78
2022/11/16 11:44:21;;;;;;;5.57;5.07;;;17.90;37.30;;;;;;2613237;39;20864;-78
2022/11/16 11:54:06;;;;;;;7.87;5.17;;;15.80;48.80;;;;;;2615244;39;20797;-80
2022/11/16 11:56:33;;;;;;;7.90;5.80;;;18.00;43.60;;;;;;2613516;54;20542;-80
2022/11/16 12:02:57;;;;;;;5.30;4.40;;;17.00;38.90;;;;;;2613958;39;20837;-78
2022/11/16 12:08:58;;;;;;;8.33;5.70;;;17.80;44.30;;;;;;2611815;54;20395;-78
2022/11/16 12:21:17;;;;;;;6.73;5.73;;;19.50;38.60;;;;;;2613164;54;20511;-78
2022/11/16 12:27:26;;;;;;;5.60;5.10;;;20.20;32.30;;;;;;2613425;54;20355;-80
2022/11/16 12:43:57;;;;;;;6.77;6.10;;;17.90;34.80;;;;;;2612010;54;20380;-79
2022/11/16 12:50:07;;;;;;;7.10;6.50;;;19.90;29.40;;;;;;2612204;39;20777;-79
2022/11/16 13:02:47;;;;;;;6.83;6.30;;;19.10;30.00;;;;;;2614544;54;20444;-78
2022/11/16 13:14:54;;;;;;;12.70;7.17;;;19.50;28.80;;;;;;2615116;54;20395;-78
2022/11/16 13:59:48;;;;;;;7.53;6.80;;;18.20;40.10;;;;;;2613211;54;20435;-76
2022/11/16 14:05:39;;;;;;;7.30;6.80;;;16.10;41.30;;;;;;2614487;54;20902;-76
2022/11/16 14:11:38;;;;;;;7.43;7.03;;;16.90;46.50;;;;;;2615277;54;20402;-77
2022/11/16 14:17:54;;;;;;;8.63;7.80;;;17.80;42.80;;;;;;2616441;39;20751;-78
2022/11/16 14:36:49;;;;;;;7.93;7.13;;;17.20;38.40;;;;;;2614379;54;20431;-75
2022/11/16 14:39:57;;;;;;;7.23;6.73;;;17.70;40.70;;;;;;2615309;54;20423;-75
2022/11/16 14:52:56;;;;;;;7.70;7.10;;;15.20;57.80;;;;;;2613117;54;20391;-79
2022/11/16 15:05:36;;;;;;;7.87;6.90;;;14.00;82.70;;;;;;2611676;54;20494;-79
2022/11/16 15:12:40;;;;;;;7.57;6.90;;;13.60;91.00;;;;;;2612355;54;20459;-80
2022/11/16 15:17:33;;;;;;;7.77;7.10;;;13.30;96.40;;;;;;2612927;54;20391;-80
2022/11/16 15:23:21;;;;;;;6.77;6.20;;;13.00;99.90;;;;;;2612438;54;20510;-78
2022/11/16 15:29:15;;;;;;;14.90;6.60;;;12.80;99.90;;;;;;2614505;54;20242;-80
2022/11/16 15:35:28;;;;;;;9.10;6.30;;;12.60;99.90;;;;;;2610973;54;20429;-78
2022/11/16 15:44:38;;;;;;;8.37;6.10;;;12.20;99.90;;;;;;2613802;54;20390;-79
2022/11/16 15:50:26;;;;;;;6.80;5.47;;;12.10;99.90;;;;;;2612366;54;20383;-79
2022/11/16 15:56:19;;;;;;;9.00;6.50;;;11.90;99.90;;;;;;2613291;54;20440;-78
2022/11/16 15:59:40;;;;;;;8.70;5.53;;;12.00;99.90;;;;;;2612811;54;20474;-80
2022/11/16 16:05:38;;;;;;;8.50;6.43;;;12.00;99.90;;;;;;2612286;54;20382;-78
2022/11/16 16:11:27;;;;;;;12.07;6.30;;;12.10;99.90;;;;;;2614824;54;20383;-79
2022/11/16 16:17:29;;;;;;;7.10;6.60;;;12.00;99.90;;;;;;2613460;54;20427;-79
2022/11/16 16:23:24;;;;;;;6.53;6.03;;;12.00;99.90;;;;;;2614978;54;20519;-76
2022/11/16 16:29:12;;;;;;;5.70;5.20;;;11.80;99.90;;;;;;2616463;39;20845;-81
2022/11/16 16:35:03;;;;;;;7.10;6.40;;;11.80;99.90;;;;;;2614839;54;20255;-79
2022/11/16 16:44:44;;;;;;;10.20;6.77;;;11.40;99.90;;;;;;2615349;54;20414;-80
2022/11/16 16:50:31;;;;;;;6.60;6.10;;;11.40;99.90;;;;;;2615005;54;20904;-79
2022/11/16 16:56:19;;;;;;;6.50;5.90;;;11.30;99.90;;;;;;2616234;54;20122;-79
2022/11/16 17:02:11;;;;;;;10.30;7.10;;;11.20;99.90;;;;;;2616459;54;20146;-80
2022/11/16 17:07:59;;;;;;;9.93;5.83;;;10.90;99.90;;;;;;2615635;54;20414;-81
2022/11/16 17:13:47;;;;;;;8.60;7.27;;;10.80;99.90;;;;;;2616684;39;20570;-80
2022/11/16 17:19:35;;;;;;;6.40;5.80;;;10.80;99.90;;;;;;2617519;54;20343;-81
2022/11/16 17:25:26;;;;;;;6.00;5.50;;;10.70;99.90;;;;;;2618768;54;20157;-80
2022/11/16 17:31:14;;;;;;;11.63;6.60;;;10.50;99.90;;;;;;2616608;54;20411;-80
2022/11/16 17:40:24;;;;;;;11.53;6.40;;;10.50;99.90;;;;;;2618180;54;20359;-79
2022/11/16 17:42:49;;;;;;;7.60;5.90;;;10.50;99.90;;;;;;2618339;54;20388;-81
2022/11/16 17:48:39;;;;;;;10.40;6.80;;;10.40;99.90;;;;;;2618736;54;20154;-81
2022/11/16 17:54:27;;;;;;;7.10;6.47;;;10.40;99.90;;;;;;2618017;54;20431;-80
2022/11/16 18:00:15;;;;;;;6.77;6.17;;;10.30;99.90;;;;;;2616400;54;20139;-81
2022/11/16 18:06:09;;;;;;;10.20;5.40;;;10.50;99.90;;;;;;2614885;54;20410;-76
2022/11/16 18:11:57;;;;;;;8.57;5.77;;;10.40;99.90;;;;;;2615111;54;20410;-77
2022/11/16 18:17:44;;;;;;;7.23;4.80;;;10.50;99.90;;;;;;2615802;39;20526;-76
2022/11/16 18:23:34;;;;;;;5.50;5.00;;;10.60;99.90;;;;;;2615488;54;20130;-79
2022/11/16 18:29:24;;;;;;;6.60;6.20;;;10.30;99.90;;;;;;2616199;54;20498;-80
2022/11/16 18:35:12;;;;;;;8.70;5.10;;;10.40;99.90;;;;;;2616299;54;20414;-80
2022/11/16 18:51:23;;;;;;;7.73;5.63;;;10.00;99.90;;;;;;2614334;54;20407;-79
2022/11/16 18:57:10;;;;;;;6.30;5.00;;;9.80;99.90;;;;;;2614068;54;20979;-78
2022/11/16 19:02:58;;;;;;;7.27;5.60;;;9.70;99.90;;;;;;2615145;54;20126;-82
2022/11/16 19:08:46;;;;;;;8.73;5.30;;;9.50;99.90;;;;;;2615667;54;20692;-81
2022/11/16 19:12:11;;;;;;;10.53;6.03;;;9.60;99.90;;;;;;2615099;54;20420;-80
2022/11/16 19:17:59;;;;;;;10.90;5.93;;;9.60;99.90;;;;;;2615884;54;20484;-80
2022/11/16 19:23:51;;;;;;;8.93;5.63;;;9.60;99.90;;;;;;2616540;39;20796;-81
2022/11/16 19:29:39;;;;;;;9.60;5.40;;;9.60;99.90;;;;;;2616334;54;20946;-81
2022/11/16 19:35:28;;;;;;;8.83;5.53;;;9.60;99.90;;;;;;2617058;54;20246;-81
2022/11/16 19:45:03;;;;;;;8.73;5.90;;;9.60;99.90;;;;;;2615793;54;20411;-78
2022/11/16 19:50:51;;;;;;;9.97;6.07;;;9.60;99.90;;;;;;2615422;54;20466;-77
2022/11/16 19:56:40;;;;;;;10.43;6.57;;;9.70;99.90;;;;;;2615599;54;20693;-76
2022/11/16 20:02:28;;;;;;;10.33;6.50;;;9.80;99.90;;;;;;2614881;46;20422;-77
2022/11/16 20:08:16;;;;;;;9.37;5.73;;;9.80;99.90;;;;;;2616682;54;20130;-79
2022/11/16 20:14:06;;;;;;;8.00;6.20;;;9.80;99.90;;;;;;2616344;54;20150;-82
2022/11/16 20:19:54;;;;;;;8.60;6.00;;;9.90;99.90;;;;;;2616713;54;20399;-81
2022/11/16 20:25:41;;;;;;;7.77;5.87;;;10.10;99.90;;;;;;2616550;54;20147;-82
2022/11/16 20:31:31;;;;;;;6.20;5.67;;;10.20;99.90;;;;;;2613840;54;20134;-83
2022/11/16 20:37:22;;;;;;;15.70;6.73;;;10.20;99.90;;;;;;2615871;54;20504;-82
2022/11/16 20:40:27;;;;;;;15.47;5.93;;;10.40;99.90;;;;;;2616865;54;20438;-80
2022/11/16 20:42:57;;;;;;;7.83;6.00;;;10.50;99.90;;;;;;2616590;54;20826;-79
2022/11/16 20:48:45;;;;;;;8.80;5.63;;;10.50;99.90;;;;;;2616271;54;20390;-74
2022/11/16 20:54:33;;;;;;;11.07;6.10;;;10.60;99.90;;;;;;2615410;54;20130;-75
2022/11/16 21:00:21;;;;;;;7.67;5.53;;;10.70;99.90;;;;;;2616430;54;20643;-78
2022/11/16 21:06:10;;;;;;;5.50;4.80;;;11.00;99.90;;;;;;2615800;54;20917;-78
2022/11/16 21:18:04;;;;;;;4.80;4.40;;;11.10;99.90;;;;;;2616214;54;20388;-77
2022/11/16 21:23:53;;;;;;;7.37;5.07;;;11.20;99.90;;;;;;2616112;54;20130;-77
2022/11/16 21:29:41;;;;;;;8.27;5.40;;;11.10;99.90;;;;;;2616190;39;20486;-77
2022/11/16 21:35:29;;;;;;;10.20;4.70;;;11.10;99.90;;;;;;2616114;39;20529;-80
2022/11/16 21:45:04;;;;;;;6.70;4.73;;;11.10;99.90;;;;;;2615357;54;20407;-80
2022/11/16 21:51:12;;;;;;;6.83;5.00;;;11.10;99.90;;;;;;2615684;39;20837;-76
2022/11/16 21:57:00;;;;;;;7.07;4.53;;;11.10;99.90;;;;;;2615079;54;20395;-77
2022/11/16 22:02:48;;;;;;;6.73;4.73;;;11.20;99.90;;;;;;2615612;54;20126;-77
2022/11/16 22:08:36;;;;;;;6.07;4.80;;;11.10;99.90;;;;;;2616575;39;20578;-78
2022/11/16 22:14:24;;;;;;;9.87;4.50;;;11.20;99.90;;;;;;2617240;54;20419;-76
2022/11/16 22:20:12;;;;;;;5.83;4.60;;;11.10;99.90;;;;;;2616226;54;20134;-77
2022/11/16 22:26:08;;;;;;;8.23;4.43;;;11.10;99.90;;;;;;2616772;54;20146;-77
2022/11/16 22:31:57;;;;;;;6.90;4.43;;;11.20;99.90;;;;;;2615246;54;20446;-79
2022/11/16 22:37:44;;;;;;;5.13;4.00;;;11.20;99.90;;;;;;2615908;54;20235;-78
2022/11/16 22:40:29;;;;;;;5.57;4.90;;;11.40;99.90;;;;;;2616030;54;20917;-78
2022/11/16 22:46:48;;;;;;;7.03;4.50;;;11.40;99.90;;;;;;2616064;54;20442;-78
2022/11/16 22:52:36;;;;;;;8.33;7.13;;;11.50;99.90;;;;;;2615620;54;20371;-78
2022/11/16 22:58:23;;;;;;;5.93;4.80;;;11.50;99.90;;;;;;2616174;54;20231;-78
2022/11/16 23:04:11;;;;;;;5.53;5.13;;;11.50;99.90;;;;;;2616585;54;20215;-78
2022/11/16 23:09:59;;;;;;;6.60;4.70;;;11.50;99.90;;;;;;2615796;54;20150;-78
2022/11/16 23:15:49;;;;;;;6.10;5.53;;;11.50;99.90;;;;;;2615275;54;20699;-76
2022/11/16 23:27:55;;;;;;;5.80;5.27;;;11.50;99.90;;;;;;2616622;39;20804;-79
2022/11/16 23:33:43;;;;;;;5.93;5.37;;;11.40;99.90;;;;;;2615921;54;20418;-78
2022/11/16 23:39:31;;;;;;;5.00;4.60;;;11.60;99.90;;;;;;2616837;54;20230;-78
2022/11/16 23:45:02;;;;;;;5.47;4.83;;;11.60;99.90;;;;;;2616136;46;20186;-77
2022/11/16 23:50:50;;;;;;;4.60;4.00;;;11.60;99.90;;;;;;2615808;54;20367;-82
2022/11/16 23:56:38;;;;;;;4.20;3.60;;;11.40;99.90;;;;;;2617352;54;20150;-82
